Time;durP1;ratioP1;P1;durP2;ratioP2;P2;SDS_P1;SDS_P2;PMS_P1;PMS_P2;Temp;Humidity;BMP_temperature;BMP_pressure;BME280_temperature;BME280_humidity;BME280_pressure;Samples;Min_cycle;Max_cycle;Signal;HPM_P1;HPM_P2
2022/12/07 00:01:34;;;;;;;0.10;0.10;;;;;;;2.59;100.00;101735.28;4960653;28;20381;-73
2022/12/07 00:04:04;;;;;;;0.13;0.13;;;;;;;2.60;100.00;101731.72;4954304;28;20033;-73
2022/12/07 00:06:31;;;;;;;0.10;0.10;;;;;;;2.53;100.00;101734.53;4942244;28;20030;-73
2022/12/07 00:08:57;;;;;;;0.20;0.20;;;;;;;2.68;100.00;101762.41;4959897;28;20714;-73
2022/12/07 00:11:22;;;;;;;0.20;0.20;;;;;;;2.61;100.00;101736.13;4952454;28;20043;-74
2022/12/07 00:13:52;;;;;;;0.10;0.10;;;;;;;2.70;100.00;101754.38;4938283;28;20034;-72
2022/12/07 00:16:20;;;;;;;0.10;0.10;;;;;;;2.72;100.00;101755.19;4941491;28;20061;-73
2022/12/07 00:18:45;;;;;;;0.10;0.10;;;;;;;2.70;100.00;101752.59;4954485;28;20597;-73
2022/12/07 00:21:19;;;;;;;0.20;0.20;;;;;;;2.67;100.00;101754.47;4950782;28;20043;-73
2022/12/07 00:23:45;;;;;;;0.20;0.20;;;;;;;2.48;100.00;101727.66;4945126;28;20031;-73
2022/12/07 00:26:21;;;;;;;0.20;0.20;;;;;;;2.59;100.00;101741.44;4966618;28;20031;-73
2022/12/07 00:28:51;;;;;;;0.10;0.10;;;;;;;2.58;100.00;101742.34;4953631;28;20031;-73
2022/12/07 00:31:18;;;;;;;0.17;0.17;;;;;;;2.40;100.00;101712.84;4949772;28;20605;-73
2022/12/07 00:33:44;;;;;;;0.20;0.20;;;;;;;2.54;100.00;101735.41;4944957;28;20057;-73
2022/12/07 00:36:12;;;;;;;0.20;0.20;;;;;;;2.52;100.00;101732.81;4934824;28;20467;-73
2022/12/07 00:38:39;;;;;;;0.10;0.10;;;;;;;2.38;100.00;101722.63;4949468;28;20389;-73
2022/12/07 00:41:06;;;;;;;0.20;0.20;;;;;;;2.32;100.00;101704.22;4969448;28;20068;-73
2022/12/07 00:43:32;;;;;;;0.17;0.17;;;;;;;2.37;100.00;101710.28;4939619;28;20027;-73
2022/12/07 00:45:57;;;;;;;0.20;0.20;;;;;;;2.44;100.00;101713.59;4946122;28;20031;-73
2022/12/07 00:48:24;;;;;;;0.10;0.10;;;;;;;2.59;100.00;101736.13;4956605;28;20031;-73
2022/12/07 00:50:50;;;;;;;0.10;0.10;;;;;;;2.63;100.00;101734.28;4951844;28;20084;-73
2022/12/07 00:53:15;;;;;;;0.13;0.13;;;;;;;2.69;100.00;101731.41;4948260;28;20117;-73
2022/12/07 00:55:41;;;;;;;0.20;0.20;;;;;;;2.50;100.00;101701.97;4933096;28;20370;-73
2022/12/07 00:58:06;;;;;;;0.20;0.20;;;;;;;2.54;100.00;101709.78;4954078;28;20058;-74
2022/12/07 01:00:33;;;;;;;0.13;0.13;;;;;;;2.71;100.00;101734.91;4949350;28;20023;-73
2022/12/07 01:02:59;;;;;;;0.13;0.13;;;;;;;2.69;100.00;101721.69;4943516;28;20037;-73
2022/12/07 01:05:24;;;;;;;0.10;0.10;;;;;;;2.51;100.00;101704.56;4950498;28;20066;-73
2022/12/07 01:07:49;;;;;;;0.20;0.20;;;;;;;2.47;100.00;101710.88;4950013;28;20027;-73
2022/12/07 01:10:15;;;;;;;0.20;0.20;;;;;;;2.39;100.00;101700.50;4960575;28;20055;-73
2022/12/07 01:12:40;;;;;;;0.20;0.20;;;;;;;2.45;100.00;101718.00;4961482;28;20554;-73
2022/12/07 01:15:07;;;;;;;0.20;0.20;;;;;;;2.30;100.00;101694.59;4947548;28;20420;-73
2022/12/07 01:17:32;;;;;;;0.20;0.20;;;;;;;2.46;100.00;101727.69;4936603;28;20039;-73
2022/12/07 01:19:57;;;;;;;0.20;0.20;;;;;;;2.28;100.00;101714.97;4949576;28;20473;-73
2022/12/07 01:22:23;;;;;;;0.20;0.20;;;;;;;2.25;100.00;101721.25;4954376;28;20049;-73
2022/12/07 01:24:48;;;;;;;0.20;0.20;;;;;;;2.33;100.00;101732.47;4950597;28;20042;-73
2022/12/07 01:27:14;;;;;;;0.20;0.20;;;;;;;2.32;100.00;101730.75;4974448;28;20033;-73
2022/12/07 01:29:39;;;;;;;0.13;0.13;;;;;;;2.06;100.00;101705.00;4947466;28;20043;-73
2022/12/07 01:32:04;;;;;;;0.10;0.10;;;;;;;2.21;100.00;101735.50;4947591;28;20031;-73
2022/12/07 01:34:30;;;;;;;0.20;0.20;;;;;;;2.04;100.00;101712.97;4947709;28;20030;-73
2022/12/07 01:36:55;;;;;;;0.20;0.20;;;;;;;2.18;100.00;101724.97;4949653;28;20496;-73
2022/12/07 01:39:21;;;;;;;0.20;0.20;;;;;;;2.06;100.00;101712.94;4965073;28;20037;-73
2022/12/07 01:41:47;;;;;;;0.20;0.20;;;;;;;2.11;100.00;101721.63;4934003;28;20096;-73
2022/12/07 01:44:24;;;;;;;0.20;0.20;;;;;;;2.12;100.00;101730.44;4949072;28;20030;-73
2022/12/07 01:46:55;;;;;;;0.15;0.15;;;;;;;2.04;100.00;101717.41;4966650;28;20026;-73
2022/12/07 01:49:43;;;;;;;0.20;0.20;;;;;;;2.10;100.00;101719.91;4947139;28;20480;-73
2022/12/07 01:52:15;;;;;;;0.20;0.20;;;;;;;2.10;100.00;101726.06;4952135;28;20126;-73
2022/12/07 01:54:41;;;;;;;0.20;0.20;;;;;;;1.94;100.00;101712.38;4965357;28;20134;-73
2022/12/07 01:57:08;;;;;;;0.20;0.20;;;;;;;1.86;100.00;101692.31;4933925;28;20038;-73
2022/12/07 01:59:33;;;;;;;0.20;0.20;;;;;;;1.91;100.00;101712.44;4938902;28;20493;-73
2022/12/07 02:01:59;;;;;;;0.20;0.20;;;;;;;1.84;100.00;101695.00;4954122;28;20503;-73
2022/12/07 02:04:25;;;;;;;0.15;0.15;;;;;;;1.97;100.00;101726.44;4949704;28;20410;-73
2022/12/07 02:06:50;;;;;;;0.20;0.20;;;;;;;1.67;100.00;101676.94;4957791;28;20037;-73
2022/12/07 02:09:16;;;;;;;0.20;0.20;;;;;;;1.75;100.00;101696.09;4942998;28;20074;-73
2022/12/07 02:11:41;;;;;;;0.15;0.15;;;;;;;1.77;100.00;101702.22;4951295;28;20049;-73
2022/12/07 02:14:07;;;;;;;0.20;0.20;;;;;;;1.89;100.00;101716.91;4956539;28;20588;-73
2022/12/07 02:16:51;;;;;;;0.17;0.17;;;;;;;1.80;100.00;101719.84;4960627;28;20094;-73
2022/12/07 02:19:30;;;;;;;0.20;0.20;;;;;;;1.71;100.00;101709.47;4958322;28;20050;-73
2022/12/07 02:22:25;;;;;;;0.20;0.20;;;;;;;1.79;100.00;101718.09;4959758;28;20101;-73
2022/12/07 02:25:15;;;;;;;0.20;0.20;;;;;;;1.78;100.00;101719.00;4936905;28;20034;-73
2022/12/07 02:28:05;;;;;;;0.20;0.20;;;;;;;1.77;100.00;101715.47;4960549;28;21915;-73
2022/12/07 02:30:34;;;;;;;0.20;0.20;;;;;;;1.74;100.00;101712.03;4962166;28;20039;-73
2022/12/07 02:33:04;;;;;;;0.20;0.20;;;;;;;1.78;100.00;101716.34;4947360;28;20034;-73
2022/12/07 02:35:38;;;;;;;0.13;0.13;;;;;;;1.76;100.00;101715.53;4945049;28;20038;-73
2022/12/07 02:38:15;;;;;;;0.20;0.20;;;;;;;1.76;100.00;101718.16;4962249;28;20037;-73
2022/12/07 02:40:43;;;;;;;0.20;0.20;;;;;;;1.77;100.00;101711.97;4963371;28;20058;-73
2022/12/07 02:43:17;;;;;;;0.20;0.20;;;;;;;1.63;100.00;101699.09;4960668;28;20105;-73
2022/12/07 02:45:43;;;;;;;0.20;0.20;;;;;;;1.59;100.00;101700.09;4940661;28;20520;-73
2022/12/07 02:48:10;;;;;;;0.20;0.20;;;;;;;1.47;100.00;101690.69;4942940;28;20122;-74
2022/12/07 02:50:35;;;;;;;0.20;0.20;;;;;;;1.57;100.00;101689.53;4950953;28;20018;-73
2022/12/07 02:53:01;;;;;;;0.20;0.20;;;;;;;1.49;100.00;101686.22;4966592;28;20041;-73
2022/12/07 02:55:30;;;;;;;0.20;0.20;;;;;;;1.74;100.00;101717.34;4969683;28;20481;-74
2022/12/07 02:58:14;;;;;;;0.20;0.20;;;;;;;1.72;100.00;101722.66;4954665;28;20065;-73
2022/12/07 03:01:34;;;;;;;0.20;0.20;;;;;;;1.73;100.00;101719.09;4956394;28;20358;-73
2022/12/07 03:04:25;;;;;;;0.20;0.20;;;;;;;1.55;100.00;101711.66;4890129;28;20410;-73
2022/12/07 03:06:57;;;;;;;0.20;0.20;;;;;;;1.66;100.00;101720.19;4965137;28;20028;-73
2022/12/07 03:09:36;;;;;;;0.20;0.20;;;;;;;1.61;100.00;101724.75;4941087;28;20089;-73
2022/12/07 03:12:10;;;;;;;0.20;0.20;;;;;;;1.42;100.00;101701.41;4953954;28;20111;-73
2022/12/07 03:14:41;;;;;;;0.20;0.20;;;;;;;1.56;100.00;101716.03;4946990;28;20030;-73
2022/12/07 03:17:14;;;;;;;0.20;0.20;;;;;;;1.55;100.00;101723.13;4975654;28;20042;-73
2022/12/07 03:19:40;;;;;;;0.20;0.20;;;;;;;1.54;100.00;101723.16;4940790;28;20045;-73
2022/12/07 03:22:09;;;;;;;0.30;0.30;;;;;;;1.45;100.00;101703.97;4934182;28;20038;-73
2022/12/07 03:24:40;;;;;;;0.20;0.20;;;;;;;1.62;100.00;101723.84;4956882;28;20085;-73
2022/12/07 03:27:16;;;;;;;0.13;0.13;;;;;;;1.46;100.00;101699.53;4940819;28;20034;-73
2022/12/07 03:29:49;;;;;;;0.20;0.20;;;;;;;1.60;100.00;101721.22;4965620;28;20030;-73
2022/12/07 03:32:40;;;;;;;0.20;0.20;;;;;;;1.66;100.00;101709.59;4961738;28;20364;-73
2022/12/07 03:35:21;;;;;;;0.20;0.20;;;;;;;1.57;100.00;101691.31;4945677;28;20312;-73
2022/12/07 03:38:07;;;;;;;0.10;0.10;;;;;;;1.76;100.00;101708.44;4945176;28;20035;-73
2022/12/07 03:40:40;;;;;;;0.20;0.20;;;;;;;1.82;100.00;101702.13;4945331;28;20031;-73
2022/12/07 03:43:06;;;;;;;0.20;0.20;;;;;;;1.83;100.00;101698.56;4942833;28;20026;-73
2022/12/07 03:46:13;;;;;;;0.20;0.20;;;;;;;1.93;100.00;101715.91;4947784;28;20032;-73
2022/12/07 03:49:00;;;;;;;0.20;0.20;;;;;;;1.79;100.00;101684.53;4951619;28;20820;-73
2022/12/07 03:51:33;;;;;;;0.17;0.17;;;;;;;1.87;100.00;101694.03;4959149;28;20035;-73
2022/12/07 03:54:05;;;;;;;0.20;0.20;;;;;;;1.93;100.00;101691.22;4935797;28;20085;-73
2022/12/07 03:56:31;;;;;;;0.13;0.13;;;;;;;1.91;100.00;101677.16;4953878;28;20058;-73
2022/12/07 03:58:56;;;;;;;0.10;0.10;;;;;;;2.12;100.00;101707.44;4951174;28;20097;-73
2022/12/07 04:01:23;;;;;;;0.10;0.10;;;;;;;2.06;100.00;101699.69;4972957;28;20457;-73
2022/12/07 04:03:48;;;;;;;0.20;0.20;;;;;;;2.23;100.00;101707.16;4950865;28;20117;-73
2022/12/07 04:06:13;;;;;;;0.20;0.20;;;;;;;2.28;100.00;101705.22;4957293;28;20433;-73
2022/12/07 04:08:39;;;;;;;0.20;0.20;;;;;;;2.30;100.00;101706.06;4966733;28;20034;-73
2022/12/07 04:11:05;;;;;;;0.10;0.10;;;;;;;2.23;100.00;101692.13;4962120;28;20042;-73
2022/12/07 04:14:17;;;;;;;0.20;0.20;;;;;;;2.36;100.00;101705.03;4942003;28;20022;-73
2022/12/07 04:16:15;;;;;;;0.13;0.13;;;;;;;2.37;100.00;101698.81;4966877;28;20045;-73
2022/12/07 04:18:40;;;;;;;0.20;0.20;;;;;;;2.23;100.00;101697.44;4956698;28;20034;-73
2022/12/07 04:21:06;;;;;;;0.10;0.10;;;;;;;2.08;100.00;101704.03;4965658;28;20035;-73
2022/12/07 04:23:31;;;;;;;0.20;0.20;;;;;;;1.98;100.00;101681.38;4961604;28;20574;-73
2022/12/07 04:25:57;;;;;;;0.20;0.20;;;;;;;2.12;100.00;101691.56;4971979;28;20031;-73
2022/12/07 04:28:22;;;;;;;0.10;0.10;;;;;;;2.35;100.00;101703.28;4968812;28;20030;-73
2022/12/07 04:30:48;;;;;;;0.10;0.10;;;;;;;2.41;100.00;101697.78;4966190;28;20027;-73
2022/12/07 04:33:13;;;;;;;0.10;0.10;;;;;;;2.52;100.00;101692.16;4970112;28;20146;-73
2022/12/07 04:35:38;;;;;;;0.20;0.20;;;;;;;2.58;100.00;101696.44;4964592;28;20129;-73
2022/12/07 04:38:04;;;;;;;0.20;0.20;;;;;;;2.58;100.00;101691.97;4944029;28;20109;-73
2022/12/07 04:40:29;;;;;;;0.20;0.20;;;;;;;2.63;100.00;101698.00;4942523;28;20023;-73
2022/12/07 04:42:55;;;;;;;0.20;0.20;;;;;;;2.65;100.00;101700.63;4954705;28;20035;-73
2022/12/07 04:45:20;;;;;;;0.10;0.10;;;;;;;2.54;100.00;101679.72;4959057;28;20031;-73
2022/12/07 04:47:46;;;;;;;0.10;0.10;;;;;;;2.60;100.00;101686.66;4944284;28;20430;-73
2022/12/07 04:50:11;;;;;;;0.10;0.10;;;;;;;2.60;100.00;101690.16;4925777;28;20509;-73
2022/12/07 04:52:36;;;;;;;0.13;0.13;;;;;;;2.59;100.00;101688.41;4959544;28;20031;-73
2022/12/07 04:55:02;;;;;;;0.20;0.20;;;;;;;2.55;100.00;101687.66;4963087;28;20551;-73
2022/12/07 04:57:27;;;;;;;0.20;0.20;;;;;;;2.46;100.00;101677.31;4960541;28;20081;-73
2022/12/07 04:59:52;;;;;;;0.20;0.20;;;;;;;2.28;100.00;101659.31;4961245;28;20031;-73
2022/12/07 05:02:18;;;;;;;0.20;0.20;;;;;;;2.35;100.00;101684.75;4944246;28;20109;-73
2022/12/07 05:04:43;;;;;;;0.20;0.20;;;;;;;2.31;100.00;101694.53;4944656;28;20031;-73
2022/12/07 05:07:08;;;;;;;0.10;0.10;;;;;;;2.30;100.00;101690.16;4956113;28;20058;-73
2022/12/07 05:09:34;;;;;;;0.20;0.20;;;;;;;2.25;100.00;101692.09;4953530;28;20122;-73
2022/12/07 05:11:59;;;;;;;0.20;0.20;;;;;;;2.15;100.00;101685.31;4953184;28;20022;-73
2022/12/07 05:14:24;;;;;;;0.20;0.20;;;;;;;2.10;100.00;101669.56;4924513;28;20053;-73
2022/12/07 05:16:50;;;;;;;0.20;0.20;;;;;;;2.14;100.00;101684.44;4955989;28;20037;-73
2022/12/07 05:19:18;;;;;;;0.20;0.20;;;;;;;2.04;100.00;101675.03;4940828;28;20055;-73
2022/12/07 05:21:43;;;;;;;0.20;0.20;;;;;;;1.96;100.00;101667.31;4944884;28;20094;-73
2022/12/07 05:24:11;;;;;;;0.17;0.17;;;;;;;2.15;100.00;101694.13;4924790;28;20300;-73
2022/12/07 05:26:36;;;;;;;0.20;0.20;;;;;;;2.14;100.00;101681.78;4948548;28;20109;-73
2022/12/07 05:29:02;;;;;;;0.20;0.20;;;;;;;2.18;100.00;101691.38;4948132;28;20034;-73
2022/12/07 05:31:27;;;;;;;0.13;0.13;;;;;;;2.20;100.00;101686.06;4946694;28;20046;-73
2022/12/07 05:33:53;;;;;;;0.20;0.20;;;;;;;2.11;100.00;101668.66;4959622;28;20377;-73
2022/12/07 05:36:18;;;;;;;0.20;0.20;;;;;;;2.21;100.00;101682.50;4953872;28;20033;-73
2022/12/07 05:38:44;;;;;;;0.10;0.10;;;;;;;2.27;100.00;101692.03;4931659;28;20037;-73
2022/12/07 05:42:11;;;;;;;0.20;0.20;;;;;;;2.23;100.00;101685.97;4955699;28;20443;-73
2022/12/07 05:43:58;;;;;;;0.20;0.20;;;;;;;2.09;100.00;101671.31;4939334;28;20460;-73
2022/12/07 05:46:23;;;;;;;0.10;0.10;;;;;;;2.17;100.00;101694.09;4938379;28;20055;-73
2022/12/07 05:48:48;;;;;;;0.10;0.10;;;;;;;2.12;100.00;101690.69;4931901;28;20376;-73
2022/12/07 05:51:14;;;;;;;0.10;0.10;;;;;;;2.10;100.00;101688.97;4945714;28;20524;-73
2022/12/07 05:53:39;;;;;;;0.20;0.20;;;;;;;1.96;100.00;101680.56;4929650;28;20503;-73
2022/12/07 05:56:05;;;;;;;0.10;0.10;;;;;;;1.79;100.00;101652.75;4950906;28;20050;-73
2022/12/07 06:01:14;;;;;;;0.20;0.20;;;;;;;1.92;100.00;101657.72;4962944;28;20515;-73
2022/12/07 06:03:39;;;;;;;0.10;0.10;;;;;;;1.92;100.00;101663.00;4936208;28;20039;-73
2022/12/07 06:06:04;;;;;;;0.20;0.20;;;;;;;1.93;100.00;101662.94;4940090;28;20062;-73
2022/12/07 06:08:30;;;;;;;0.10;0.10;;;;;;;2.07;100.00;101662.56;4942114;28;20053;-73
2022/12/07 06:12:33;;;;;;;0.10;0.10;;;;;;;2.00;100.00;101653.03;4934091;28;20050;-72
2022/12/07 06:13:40;;;;;;;0.20;0.20;;;;;;;2.09;100.00;101663.38;4950224;28;20078;-73
2022/12/07 06:16:06;;;;;;;0.20;0.20;;;;;;;1.97;100.00;101642.56;4932643;28;20038;-73
2022/12/07 06:18:31;;;;;;;0.20;0.20;;;;;;;2.15;100.00;101683.53;4940394;28;20035;-73
2022/12/07 06:20:56;;;;;;;0.20;0.20;;;;;;;2.16;100.00;101681.75;4959074;28;20046;-73
2022/12/07 06:23:22;;;;;;;0.10;0.10;;;;;;;2.07;100.00;101672.31;4948213;28;20042;-73
2022/12/07 06:25:47;;;;;;;0.20;0.20;;;;;;;1.97;100.00;101663.75;4957329;28;20039;-73
2022/12/07 06:28:12;;;;;;;0.20;0.20;;;;;;;2.04;100.00;101662.63;4963901;28;20066;-73
2022/12/07 06:30:38;;;;;;;0.10;0.10;;;;;;;2.16;100.00;101677.31;4938617;28;20038;-72
2022/12/07 06:33:04;;;;;;;0.20;0.20;;;;;;;2.11;100.00;101666.00;4942866;28;20038;-72
2022/12/07 06:35:29;;;;;;;0.20;0.20;;;;;;;2.16;100.00;101673.81;4928089;28;20160;-73
2022/12/07 06:37:55;;;;;;;0.10;0.10;;;;;;;2.08;100.00;101671.38;4947162;28;20121;-72
2022/12/07 06:40:20;;;;;;;0.10;0.10;;;;;;;2.02;100.00;101659.16;4928819;28;20046;-73
2022/12/07 06:42:45;;;;;;;0.20;0.20;;;;;;;2.05;100.00;101660.88;4946315;28;20034;-73
2022/12/07 06:45:10;;;;;;;0.17;0.17;;;;;;;2.00;100.00;101663.63;4962181;28;20066;-73
2022/12/07 06:47:36;;;;;;;0.20;0.20;;;;;;;2.19;100.00;101687.81;4961266;28;20487;-73
2022/12/07 06:50:02;;;;;;;0.20;0.20;;;;;;;2.10;100.00;101682.81;4971113;28;20097;-72
2022/12/07 06:52:27;;;;;;;0.15;0.15;;;;;;;1.79;100.00;101638.66;4949126;28;20038;-73
2022/12/07 06:54:52;;;;;;;0.20;0.20;;;;;;;2.09;100.00;101689.03;4968500;28;20057;-73
2022/12/07 06:57:20;;;;;;;0.20;0.20;;;;;;;1.84;100.00;101643.81;4944990;28;20059;-73
2022/12/07 06:59:45;;;;;;;0.20;0.20;;;;;;;1.85;100.00;101651.72;4943322;28;20046;-73
2022/12/07 07:02:10;;;;;;;0.20;0.20;;;;;;;1.95;100.00;101687.63;4955952;28;20023;-73
2022/12/07 07:04:35;;;;;;;0.20;0.20;;;;;;;1.97;100.00;101684.94;4967224;28;20352;-72
2022/12/07 07:07:01;;;;;;;0.20;0.20;;;;;;;1.85;100.00;101670.25;4931638;28;20027;-73
2022/12/07 07:09:26;;;;;;;0.20;0.20;;;;;;;1.75;100.00;101669.63;4948626;28;20037;-72
2022/12/07 07:11:52;;;;;;;0.30;0.30;;;;;;;1.79;100.00;101678.38;4961001;28;20066;-73
2022/12/07 07:14:18;;;;;;;0.20;0.20;;;;;;;1.84;100.00;101683.53;4949387;28;20026;-73
2022/12/07 07:16:44;;;;;;;0.20;0.20;;;;;;;1.66;100.00;101659.31;4943786;28;20035;-73
2022/12/07 07:19:09;;;;;;;0.20;0.20;;;;;;;1.62;100.00;101662.94;4962696;28;20039;-73
2022/12/07 07:21:35;;;;;;;0.20;0.20;;;;;;;1.55;100.00;101662.25;4956980;28;20028;-73
2022/12/07 07:24:00;;;;;;;0.20;0.20;;;;;;;1.73;100.00;101697.91;4955263;28;20469;-73
2022/12/07 07:26:25;;;;;;;0.20;0.20;;;;;;;1.74;100.00;101690.88;4951079;28;20030;-72
2022/12/07 07:28:51;;;;;;;0.20;0.20;;;;;;;1.64;100.00;101693.75;4975480;28;20073;-73
2022/12/07 07:31:16;;;;;;;0.20;0.20;;;;;;;1.70;100.00;101695.38;4949936;28;20114;-73
2022/12/07 07:33:41;;;;;;;0.20;0.20;;;;;;;1.57;100.00;101678.97;4969833;28;20892;-72
2022/12/07 07:36:07;;;;;;;0.20;0.20;;;;;;;1.72;100.00;101704.13;4969817;28;20166;-73
2022/12/07 07:38:32;;;;;;;0.20;0.20;;;;;;;1.67;100.00;101698.09;4958448;28;20027;-73
2022/12/07 07:40:57;;;;;;;0.20;0.20;;;;;;;1.70;100.00;101698.03;4970536;28;20098;-72
2022/12/07 07:43:24;;;;;;;0.20;0.20;;;;;;;1.70;100.00;101695.38;4963758;28;20026;-73
2022/12/07 07:45:49;;;;;;;0.20;0.20;;;;;;;1.49;100.00;101681.78;4963563;28;20062;-73
2022/12/07 07:48:14;;;;;;;0.20;0.20;;;;;;;1.50;100.00;101672.09;4962968;28;20142;-73
2022/12/07 07:50:40;;;;;;;0.20;0.20;;;;;;;1.64;100.00;101693.75;4962148;28;20923;-73
2022/12/07 07:53:05;;;;;;;0.20;0.20;;;;;;;1.65;100.00;101690.19;4966878;28;20033;-73
2022/12/07 07:55:30;;;;;;;0.20;0.20;;;;;;;1.53;100.00;101684.34;4952248;28;20050;-73
2022/12/07 07:57:56;;;;;;;0.20;0.20;;;;;;;1.56;100.00;101678.97;4949787;28;20526;-73
2022/12/07 08:00:21;;;;;;;0.20;0.20;;;;;;;1.73;100.00;101700.56;4946466;28;20367;-73
2022/12/07 08:02:47;;;;;;;0.20;0.20;;;;;;;1.71;100.00;101673.28;4947037;28;20042;-73
2022/12/07 08:05:13;;;;;;;0.20;0.20;;;;;;;1.88;100.00;101703.72;4971075;28;20081;-73
2022/12/07 08:07:38;;;;;;;0.20;0.20;;;;;;;1.76;100.00;101694.34;4945925;28;20422;-73
2022/12/07 08:10:05;;;;;;;0.20;0.20;;;;;;;1.64;100.00;101688.44;4964335;28;20082;-73
2022/12/07 08:12:30;;;;;;;0.20;0.20;;;;;;;1.83;100.00;101698.56;4933109;28;20122;-73
2022/12/07 08:14:55;;;;;;;0.20;0.20;;;;;;;1.91;100.00;101672.72;4949828;28;20369;-73
2022/12/07 08:17:21;;;;;;;0.20;0.20;;;;;;;2.28;100.00;101688.47;4965561;28;20421;-73
2022/12/07 08:19:46;;;;;;;0.20;0.20;;;;;;;2.52;100.00;101697.47;4960375;28;21282;-72
2022/12/07 08:22:12;;;;;;;0.20;0.20;;;;;;;2.67;100.00;101702.31;4965743;28;20023;-73
2022/12/07 08:24:37;;;;;;;0.20;0.20;;;;;;;2.79;100.00;101706.38;4950705;28;20026;-73
2022/12/07 08:27:03;;;;;;;0.20;0.20;;;;;;;2.84;100.00;101700.91;4962235;28;20031;-73
2022/12/07 08:29:28;;;;;;;0.20;0.20;;;;;;;3.08;100.00;101701.03;4946084;28;20066;-73
2022/12/07 08:31:54;;;;;;;0.22;0.22;;;;;;;3.04;100.00;101707.38;4963645;28;20452;-73
2022/12/07 08:34:19;;;;;;;0.20;0.20;;;;;;;3.32;100.00;101702.03;4964814;28;20062;-73
2022/12/07 08:36:44;;;;;;;0.20;0.20;;;;;;;3.58;100.00;101713.53;4968192;28;20065;-73
2022/12/07 08:39:10;;;;;;;0.20;0.20;;;;;;;3.59;100.00;101715.28;4967542;28;20037;-73
2022/12/07 08:41:35;;;;;;;0.10;0.10;;;;;;;3.52;100.00;101714.63;4929201;28;20117;-73
2022/12/07 08:44:00;;;;;;;0.10;0.10;;;;;;;3.45;100.00;101716.59;4966326;28;20072;-73
2022/12/07 08:46:37;;;;;;;0.20;0.20;;;;;;;3.30;100.00;101722.44;4950599;28;20492;-73
2022/12/07 08:49:15;;;;;;;0.20;0.20;;;;;;;3.20;100.00;101715.69;4936072;28;20403;-73
2022/12/07 08:51:41;;;;;;;0.20;0.20;;;;;;;3.18;100.00;101721.06;4965352;28;20058;-73
2022/12/07 08:54:10;;;;;;;0.10;0.10;;;;;;;3.04;100.00;101692.31;4970086;28;20057;-73
2022/12/07 08:56:35;;;;;;;0.10;0.10;;;;;;;3.07;100.00;101694.88;4944359;28;20029;-73
2022/12/07 08:59:01;;;;;;;0.20;0.20;;;;;;;3.32;100.00;101722.38;4957017;28;20026;-73
2022/12/07 09:01:26;;;;;;;0.10;0.10;;;;;;;3.39;100.00;101697.38;4945670;28;20059;-73
2022/12/07 09:03:52;;;;;;;0.20;0.20;;;;;;;3.09;100.00;101694.81;4951157;28;20032;-73
2022/12/07 09:06:17;;;;;;;0.20;0.20;;;;;;;3.36;100.00;101722.25;4947547;28;20031;-73
2022/12/07 09:08:46;;;;;;;0.20;0.20;;;;;;;3.50;100.00;101710.28;4945209;28;20042;-73
2022/12/07 09:11:12;;;;;;;0.20;0.20;;;;;;;3.38;100.00;101716.88;4935749;28;20030;-74
2022/12/07 09:13:37;;;;;;;0.10;0.10;;;;;;;3.47;100.00;101695.31;4949032;28;20038;-73
2022/12/07 09:16:02;;;;;;;0.10;0.10;;;;;;;3.41;100.00;101696.41;4963627;28;20023;-73
2022/12/07 09:18:28;;;;;;;0.10;0.10;;;;;;;3.43;100.00;101713.16;4947568;28;20041;-74
2022/12/07 09:20:53;;;;;;;0.10;0.10;;;;;;;3.62;100.00;101714.28;4965714;28;20119;-73
2022/12/07 09:23:18;;;;;;;0.20;0.20;;;;;;;3.48;100.00;101686.44;4952446;28;20026;-73
2022/12/07 09:25:44;;;;;;;0.10;0.10;;;;;;;3.58;100.00;101708.22;4933305;28;20389;-74
2022/12/07 09:28:09;;;;;;;0.20;0.20;;;;;;;3.71;100.00;101698.06;4933223;28;20065;-74
2022/12/07 09:30:35;;;;;;;0.20;0.20;;;;;;;3.84;100.00;101717.06;4937374;28;20031;-73
2022/12/07 09:33:00;;;;;;;0.15;0.15;;;;;;;3.95;100.00;101716.69;4930658;28;20039;-74
2022/12/07 09:35:26;;;;;;;0.13;0.13;;;;;;;4.05;100.00;101715.44;4947590;28;20047;-74
2022/12/07 09:37:51;;;;;;;0.20;0.20;;;;;;;4.26;100.00;101711.09;4939683;28;20074;-73
2022/12/07 09:40:19;;;;;;;0.30;0.30;;;;;;;5.25;100.00;101715.25;4968052;28;20101;-73
2022/12/07 09:42:48;;;;;;;0.20;0.20;;;;;;;6.06;100.00;101711.84;4944817;28;20522;-74
2022/12/07 09:45:21;;;;;;;0.17;0.17;;;;;;;6.15;100.00;101716.75;4954356;28;20425;-74
2022/12/07 09:47:46;;;;;;;0.10;0.10;;;;;;;6.11;100.00;101720.47;4949080;28;20038;-74
2022/12/07 09:50:17;;;;;;;0.20;0.20;;;;;;;6.07;100.00;101715.34;4947680;28;20030;-74
2022/12/07 09:52:45;;;;;;;0.20;0.20;;;;;;;6.35;100.00;101711.44;4944853;28;20155;-74
2022/12/07 09:55:25;;;;;;;0.10;0.10;;;;;;;7.24;100.00;101703.63;4925309;28;20031;-74
2022/12/07 09:57:51;;;;;;;0.15;0.15;;;;;;;8.15;100.00;101679.34;4949230;28;20081;-74
2022/12/07 10:00:19;;;;;;;0.20;0.20;;;;;;;8.40;100.00;101691.38;4941479;28;20031;-74
2022/12/07 10:02:56;;;;;;;0.20;0.20;;;;;;;8.96;100.00;101678.44;4962672;28;20031;-74
2022/12/07 10:05:36;;;;;;;0.10;0.10;;;;;;;9.06;100.00;101702.03;4949642;28;20058;-74
2022/12/07 10:08:02;;;;;;;0.10;0.10;;;;;;;9.20;97.60;101685.16;4938541;28;20160;-74
2022/12/07 10:10:33;;;;;;;0.10;0.10;;;;;;;8.97;100.00;101701.59;4930208;28;20069;-74
2022/12/07 10:13:07;;;;;;;0.10;0.10;;;;;;;7.40;100.00;101693.03;4941409;28;20495;-74
2022/12/07 10:15:44;;;;;;;0.10;0.10;;;;;;;6.88;100.00;101685.84;4969256;28;20023;-75
2022/12/07 10:18:28;;;;;;;0.10;0.10;;;;;;;6.51;100.00;101696.44;4934004;28;20122;-74
2022/12/07 10:21:13;;;;;;;0.10;0.10;;;;;;;6.55;100.00;101667.84;4945913;28;20057;-74
2022/12/07 10:24:01;;;;;;;0.10;0.10;;;;;;;6.37;100.00;101688.22;4969225;28;20031;-74
2022/12/07 10:26:35;;;;;;;0.10;0.10;;;;;;;6.27;100.00;101677.13;4961283;28;20034;-75
2022/12/07 10:29:26;;;;;;;0.10;0.10;;;;;;;6.31;100.00;101676.06;4948433;28;20042;-74
2022/12/07 10:32:02;;;;;;;0.10;0.10;;;;;;;5.89;100.00;101659.25;4934063;28;20038;-75
2022/12/07 10:34:33;;;;;;;0.10;0.10;;;;;;;5.85;100.00;101652.31;4949747;28;20097;-75
2022/12/07 10:37:18;;;;;;;0.10;0.10;;;;;;;5.55;100.00;101666.06;4931040;28;20428;-75
2022/12/07 10:39:49;;;;;;;;;;;;;;;5.53;100.00;101674.13;4963529;28;20146;-74
2022/12/07 10:42:19;;;;;;;0.10;0.10;;;;;;;5.95;100.00;101672.31;4961484;28;20541;-74
2022/12/07 10:44:44;;;;;;;0.10;0.10;;;;;;;6.49;100.00;101674.31;4964952;28;20030;-74
2022/12/07 10:47:22;;;;;;;0.20;0.20;;;;;;;7.15;100.00;101624.84;4960142;28;20351;-74
2022/12/07 10:50:07;;;;;;;0.20;0.20;;;;;;;8.34;100.00;101656.94;4954138;28;20041;-75
2022/12/07 10:52:48;;;;;;;0.10;0.10;;;;;;;8.80;100.00;101648.16;4945993;28;20023;-77
2022/12/07 10:55:22;;;;;;;0.10;0.10;;;;;;;8.07;100.00;101631.63;4947985;28;20030;-76
2022/12/07 10:58:16;;;;;;;0.10;0.10;;;;;;;7.87;100.00;101627.34;4962544;28;20034;-75
2022/12/07 11:00:57;;;;;;;0.13;0.13;;;;;;;8.02;100.00;101627.47;4950328;28;20126;-75
2022/12/07 11:03:31;;;;;;;0.10;0.10;;;;;;;7.73;100.00;101637.91;4968570;28;20046;-75
2022/12/07 11:06:18;;;;;;;0.10;0.10;;;;;;;7.74;100.00;101639.63;4941424;28;20046;-75
2022/12/07 11:09:03;;;;;;;0.10;0.10;;;;;;;7.49;100.00;101631.13;4948540;28;20035;-75
2022/12/07 11:11:56;;;;;;;0.10;0.10;;;;;;;7.49;100.00;101622.22;4941891;28;20082;-76
2022/12/07 11:14:26;;;;;;;0.10;0.10;;;;;;;7.12;100.00;101624.13;4968899;28;20035;-75
2022/12/07 11:16:57;;;;;;;0.10;0.10;;;;;;;7.13;100.00;101623.19;4957272;28;20374;-75
2022/12/07 11:19:32;;;;;;;0.10;0.10;;;;;;;6.81;100.00;101634.53;4942378;28;20035;-75
2022/12/07 11:22:06;;;;;;;0.10;0.10;;;;;;;6.71;100.00;101620.78;4950250;28;20042;-75
2022/12/07 11:24:54;;;;;;;;;;;;;;;6.68;100.00;101626.25;4949185;28;20776;-75
2022/12/07 11:27:37;;;;;;;0.10;0.10;;;;;;;6.39;100.00;101622.34;4944203;28;19931;-74
2022/12/07 11:30:10;;;;;;;0.10;0.10;;;;;;;6.41;100.00;101602.66;4965888;28;20037;-75
2022/12/07 11:32:47;;;;;;;0.20;0.20;;;;;;;6.80;100.00;101605.25;4943033;28;20026;-75
2022/12/07 11:35:29;;;;;;;0.10;0.10;;;;;;;8.18;100.00;101616.78;4963551;28;20030;-74
2022/12/07 11:37:58;;;;;;;0.10;0.10;;;;;;;8.22;100.00;101621.03;4952669;28;20465;-76
2022/12/07 11:40:36;;;;;;;0.10;0.10;;;;;;;8.13;100.00;101600.13;4942272;28;20046;-75